sensor_id;sensor_type;location;lat;lon;timestamp;P1;durP1;ratioP1;P2;durP2;ratioP2
63900;SDS011;50538;53.482;10.294;2022-08-21T00:07:52;2.60;;;1.17;;
63900;SDS011;50538;53.482;10.294;2022-08-21T00:17:54;0.85;;;0.63;;
63900;SDS011;50538;53.482;10.294;2022-08-21T00:27:55;1.10;;;0.70;;
63900;SDS011;50538;53.482;10.294;2022-08-21T00:37:56;0.60;;;0.60;;
63900;SDS011;50538;53.482;10.294;2022-08-21T00:47:57;1.23;;;0.73;;
63900;SDS011;50538;53.482;10.294;2022-08-21T00:57:57;1.58;;;0.65;;
63900;SDS011;50538;53.482;10.294;2022-08-21T01:08:00;2.13;;;0.82;;
63900;SDS011;50538;53.482;10.294;2022-08-21T01:18:01;1.98;;;0.73;;
63900;SDS011;50538;53.482;10.294;2022-08-21T01:28:06;2.35;;;0.90;;
63900;SDS011;50538;53.482;10.294;2022-08-21T01:38:12;1.15;;;0.60;;
63900;SDS011;50538;53.482;10.294;2022-08-21T01:48:12;1.83;;;0.82;;
63900;SDS011;50538;53.482;10.294;2022-08-21T01:58:13;2.65;;;0.98;;
63900;SDS011;50538;53.482;10.294;2022-08-21T02:08:13;3.35;;;0.77;;
63900;SDS011;50538;53.482;10.294;2022-08-21T02:18:13;1.60;;;0.82;;
63900;SDS011;50538;53.482;10.294;2022-08-21T02:28:14;2.85;;;1.10;;
63900;SDS011;50538;53.482;10.294;2022-08-21T02:38:17;2.80;;;1.02;;
63900;SDS011;50538;53.482;10.294;2022-08-21T02:48:21;1.38;;;0.85;;
63900;SDS011;50538;53.482;10.294;2022-08-21T02:58:25;2.60;;;0.90;;
63900;SDS011;50538;53.482;10.294;2022-08-21T03:08:28;1.80;;;0.93;;
63900;SDS011;50538;53.482;10.294;2022-08-21T03:18:29;1.92;;;1.15;;
63900;SDS011;50538;53.482;10.294;2022-08-21T03:28:29;1.83;;;0.83;;
63900;SDS011;50538;53.482;10.294;2022-08-21T03:38:31;2.38;;;0.95;;
63900;SDS011;50538;53.482;10.294;2022-08-21T03:48:33;2.90;;;1.08;;
63900;SDS011;50538;53.482;10.294;2022-08-21T03:58:35;2.50;;;1.27;;
63900;SDS011;50538;53.482;10.294;2022-08-21T04:08:35;2.10;;;1.05;;
63900;SDS011;50538;53.482;10.294;2022-08-21T04:18:36;2.13;;;1.10;;
63900;SDS011;50538;53.482;10.294;2022-08-21T04:28:36;1.63;;;1.00;;
63900;SDS011;50538;53.482;10.294;2022-08-21T04:38:37;2.47;;;0.93;;
63900;SDS011;50538;53.482;10.294;2022-08-21T04:48:38;1.95;;;1.02;;
63900;SDS011;50538;53.482;10.294;2022-08-21T04:58:40;2.63;;;1.17;;
63900;SDS011;50538;53.482;10.294;2022-08-21T05:08:42;1.52;;;0.98;;
63900;SDS011;50538;53.482;10.294;2022-08-21T05:18:48;2.83;;;1.23;;
63900;SDS011;50538;53.482;10.294;2022-08-21T05:28:48;2.35;;;0.98;;
63900;SDS011;50538;53.482;10.294;2022-08-21T05:38:49;2.65;;;1.20;;
63900;SDS011;50538;53.482;10.294;2022-08-21T05:48:52;2.75;;;1.30;;
63900;SDS011;50538;53.482;10.294;2022-08-21T05:58:52;3.95;;;1.23;;
63900;SDS011;50538;53.482;10.294;2022-08-21T06:08:53;6.55;;;1.42;;
63900;SDS011;50538;53.482;10.294;2022-08-21T06:18:54;4.78;;;1.48;;
63900;SDS011;50538;53.482;10.294;2022-08-21T06:28:57;4.22;;;1.27;;
63900;SDS011;50538;53.482;10.294;2022-08-21T06:38:58;4.93;;;1.50;;
63900;SDS011;50538;53.482;10.294;2022-08-21T06:48:58;4.03;;;1.40;;
63900;SDS011;50538;53.482;10.294;2022-08-21T06:58:59;10.48;;;1.20;;
63900;SDS011;50538;53.482;10.294;2022-08-21T07:08:59;3.92;;;1.10;;
63900;SDS011;50538;53.482;10.294;2022-08-21T07:19:01;4.18;;;1.20;;
63900;SDS011;50538;53.482;10.294;2022-08-21T07:29:02;2.83;;;1.20;;
63900;SDS011;50538;53.482;10.294;2022-08-21T07:39:03;2.92;;;1.30;;
63900;SDS011;50538;53.482;10.294;2022-08-21T07:49:03;3.50;;;1.48;;
63900;SDS011;50538;53.482;10.294;2022-08-21T07:59:04;2.85;;;1.50;;
63900;SDS011;50538;53.482;10.294;2022-08-21T08:09:05;2.85;;;1.80;;
63900;SDS011;50538;53.482;10.294;2022-08-21T08:19:05;3.60;;;1.30;;
63900;SDS011;50538;53.482;10.294;2022-08-21T08:29:05;3.05;;;1.23;;
63900;SDS011;50538;53.482;10.294;2022-08-21T08:39:06;3.70;;;1.20;;
63900;SDS011;50538;53.482;10.294;2022-08-21T08:49:08;3.75;;;1.10;;
63900;SDS011;50538;53.482;10.294;2022-08-21T08:59:16;4.57;;;1.30;;
63900;SDS011;50538;53.482;10.294;2022-08-21T09:30:09;7.20;;;1.15;;
63900;SDS011;50538;53.482;10.294;2022-08-21T09:40:31;7.10;;;1.30;;
63900;SDS011;50538;53.482;10.294;2022-08-21T09:50:32;2.53;;;1.27;;
63900;SDS011;50538;53.482;10.294;2022-08-21T10:00:34;2.67;;;1.10;;
63900;SDS011;50538;53.482;10.294;2022-08-21T10:10:36;2.78;;;1.23;;
63900;SDS011;50538;53.482;10.294;2022-08-21T10:20:40;3.05;;;1.30;;
63900;SDS011;50538;53.482;10.294;2022-08-21T10:40:52;3.60;;;1.60;;
63900;SDS011;50538;53.482;10.294;2022-08-21T11:01:39;5.50;;;1.75;;
63900;SDS011;50538;53.482;10.294;2022-08-21T11:11:51;6.00;;;1.30;;
63900;SDS011;50538;53.482;10.294;2022-08-21T11:21:57;5.35;;;1.40;;
63900;SDS011;50538;53.482;10.294;2022-08-21T11:53:15;3.35;;;1.10;;
63900;SDS011;50538;53.482;10.294;2022-08-21T12:03:22;2.70;;;1.40;;
63900;SDS011;50538;53.482;10.294;2022-08-21T12:13:28;3.60;;;1.20;;
63900;SDS011;50538;53.482;10.294;2022-08-21T12:23:43;3.08;;;1.15;;
63900;SDS011;50538;53.482;10.294;2022-08-21T12:33:56;3.08;;;1.10;;
63900;SDS011;50538;53.482;10.294;2022-08-21T12:44:07;3.67;;;1.17;;
63900;SDS011;50538;53.482;10.294;2022-08-21T12:54:21;3.65;;;1.20;;
63900;SDS011;50538;53.482;10.294;2022-08-21T13:04:32;3.03;;;1.30;;
63900;SDS011;50538;53.482;10.294;2022-08-21T13:14:38;2.70;;;1.40;;
63900;SDS011;50538;53.482;10.294;2022-08-21T13:24:41;3.05;;;1.27;;
63900;SDS011;50538;53.482;10.294;2022-08-21T13:34:41;3.65;;;1.20;;
63900;SDS011;50538;53.482;10.294;2022-08-21T13:44:43;2.05;;;1.10;;
63900;SDS011;50538;53.482;10.294;2022-08-21T13:54:52;5.57;;;1.33;;
63900;SDS011;50538;53.482;10.294;2022-08-21T14:04:56;3.60;;;1.20;;
63900;SDS011;50538;53.482;10.294;2022-08-21T14:15:01;2.83;;;0.82;;
63900;SDS011;50538;53.482;10.294;2022-08-21T14:25:06;1.25;;;0.80;;
63900;SDS011;50538;53.482;10.294;2022-08-21T14:35:10;3.28;;;1.00;;
63900;SDS011;50538;53.482;10.294;2022-08-21T14:45:16;2.42;;;1.10;;
63900;SDS011;50538;53.482;10.294;2022-08-21T14:55:23;2.70;;;1.00;;
63900;SDS011;50538;53.482;10.294;2022-08-21T15:05:23;1.10;;;0.85;;
63900;SDS011;50538;53.482;10.294;2022-08-21T15:15:23;4.30;;;1.17;;
63900;SDS011;50538;53.482;10.294;2022-08-21T15:25:24;3.13;;;0.90;;
63900;SDS011;50538;53.482;10.294;2022-08-21T15:35:24;2.37;;;0.90;;
63900;SDS011;50538;53.482;10.294;2022-08-21T15:45:25;2.95;;;1.05;;
63900;SDS011;50538;53.482;10.294;2022-08-21T15:55:26;3.30;;;1.02;;
63900;SDS011;50538;53.482;10.294;2022-08-21T16:05:26;3.47;;;1.00;;
63900;SDS011;50538;53.482;10.294;2022-08-21T16:15:26;1.87;;;0.90;;
63900;SDS011;50538;53.482;10.294;2022-08-21T16:25:27;3.73;;;1.27;;
63900;SDS011;50538;53.482;10.294;2022-08-21T16:35:28;2.38;;;0.80;;
63900;SDS011;50538;53.482;10.294;2022-08-21T16:45:28;3.05;;;1.00;;
63900;SDS011;50538;53.482;10.294;2022-08-21T16:55:29;1.83;;;0.80;;
63900;SDS011;50538;53.482;10.294;2022-08-21T17:05:29;2.20;;;1.00;;
63900;SDS011;50538;53.482;10.294;2022-08-21T17:15:31;3.20;;;1.00;;
63900;SDS011;50538;53.482;10.294;2022-08-21T17:25:33;3.92;;;1.08;;
63900;SDS011;50538;53.482;10.294;2022-08-21T17:35:39;3.45;;;1.05;;
63900;SDS011;50538;53.482;10.294;2022-08-21T17:45:40;4.90;;;1.30;;
63900;SDS011;50538;53.482;10.294;2022-08-21T17:55:42;1.52;;;0.75;;
63900;SDS011;50538;53.482;10.294;2022-08-21T18:05:46;4.37;;;1.17;;
63900;SDS011;50538;53.482;10.294;2022-08-21T18:15:48;1.83;;;0.90;;
63900;SDS011;50538;53.482;10.294;2022-08-21T18:25:52;2.90;;;0.90;;
63900;SDS011;50538;53.482;10.294;2022-08-21T18:35:55;3.72;;;1.10;;
63900;SDS011;50538;53.482;10.294;2022-08-21T18:45:55;2.05;;;1.05;;
63900;SDS011;50538;53.482;10.294;2022-08-21T18:55:56;2.83;;;1.00;;
63900;SDS011;50538;53.482;10.294;2022-08-21T19:05:58;1.73;;;0.90;;
63900;SDS011;50538;53.482;10.294;2022-08-21T19:15:58;5.03;;;1.00;;
63900;SDS011;50538;53.482;10.294;2022-08-21T19:26:03;1.98;;;0.85;;
63900;SDS011;50538;53.482;10.294;2022-08-21T19:36:07;2.08;;;0.98;;
63900;SDS011;50538;53.482;10.294;2022-08-21T19:46:09;2.90;;;0.93;;
63900;SDS011;50538;53.482;10.294;2022-08-21T19:56:17;4.47;;;1.20;;
63900;SDS011;50538;53.482;10.294;2022-08-21T20:06:25;3.33;;;0.85;;
63900;SDS011;50538;53.482;10.294;2022-08-21T20:16:26;2.67;;;1.00;;
63900;SDS011;50538;53.482;10.294;2022-08-21T20:26:27;4.65;;;0.93;;
63900;SDS011;50538;53.482;10.294;2022-08-21T20:36:28;1.77;;;0.90;;
63900;SDS011;50538;53.482;10.294;2022-08-21T20:46:29;1.90;;;1.00;;
63900;SDS011;50538;53.482;10.294;2022-08-21T21:06:31;3.65;;;1.10;;
63900;SDS011;50538;53.482;10.294;2022-08-21T21:16:39;3.83;;;1.17;;
63900;SDS011;50538;53.482;10.294;2022-08-21T21:36:54;3.38;;;1.00;;
63900;SDS011;50538;53.482;10.294;2022-08-21T21:57:35;2.97;;;1.08;;
63900;SDS011;50538;53.482;10.294;2022-08-21T22:07:59;5.60;;;1.17;;
63900;SDS011;50538;53.482;10.294;2022-08-21T22:18:10;4.25;;;1.30;;
63900;SDS011;50538;53.482;10.294;2022-08-21T22:28:20;5.07;;;1.60;;
63900;SDS011;50538;53.482;10.294;2022-08-21T22:48:28;4.00;;;1.20;;
63900;SDS011;50538;53.482;10.294;2022-08-21T22:58:51;5.35;;;1.13;;
63900;SDS011;50538;53.482;10.294;2022-08-21T23:08:55;3.20;;;1.27;;
63900;SDS011;50538;53.482;10.294;2022-08-21T23:19:07;5.20;;;1.25;;
